Main page
METAR-TAF:

METAR-TAF

Airports :

Martinique Aimé Césaire International Airport

Fort-de-France, Martinique

latitude: 14-36N, longitude: 061-00W, elevation: 5 m

Current weather observation

The report was made 21 minutes ago, at 01:00 UTC
Wind 9 kt from the East
Temperature 25°C
Humidity 69%
Pressure 1013 hPa
Visibility 10 km or more
no clouds below 1500 m and no cumulonimbus

METAR: TFFF 110100Z AUTO 08009KT CAVOK 25/19 Q1013 TEMPO 4500 SHRA

Time: 21:21 (01:21 UTC)

Forecast

The report was made 2 hours and 21 minutes ago, at 23:00 UTC
Forecast valid from 11 at 00 UTC to 11 at 24 UTC
Wind 8 kt from the East
Visibility 10 km or more
Scattered clouds at a height of 3000 ft
Scattered clouds at a height of 6000 ft
Broken clouds at a height of 11000 ft
Probability 30% :
Temporary
from 11 at 00 UTC to 11 at 12 UTC
Visibility: 4500 m
rain showers

TAF: TFFF 102300Z 1100/1124 08008KT 9999 SCT030 SCT060 BKN110 PROB30 TEMPO 1100/1112 4500 SHRA

Weather observations and forecasts of more than 4000 airports (METAR and TAF reports).

The available stations are represented by yellow and red dots on the map.

Hover mouse over dot to see the name of the station.

Then click to see weather observations and forecasts.

To change the map : click on the green buttons with a black cross to zoom in, on the green button with a dash to zoom out, or on the green arrows for adjacent maps.


METAR-TAF: